createdAt,value
2022-08-05T00:00:23.742Z,101047.56
2022-08-05T00:02:54.234Z,101055.53
2022-08-05T00:05:27.485Z,101049.97
2022-08-05T00:08:35.023Z,101050.78
2022-08-05T00:11:01.415Z,101051.19
2022-08-05T00:13:38.953Z,101046.78
2022-08-05T00:16:10.984Z,101041.25
2022-08-05T00:18:42.730Z,101048.38
2022-08-05T00:21:14.572Z,101055.94
2022-08-05T00:23:45.731Z,101061.50
2022-08-05T00:26:22.819Z,101066.66
2022-08-05T00:28:51.614Z,101061.94
2022-08-05T00:31:54.008Z,101067.09
2022-08-05T00:34:55.130Z,101067.91
2022-08-05T00:37:10.881Z,101067.56
2022-08-05T00:39:44.088Z,101066.78
2022-08-05T00:42:31.904Z,101067.59
2022-08-05T00:45:00.720Z,101074.34
2022-08-05T00:47:53.388Z,101064.88
2022-08-05T00:50:16.693Z,101065.25
2022-08-05T00:52:45.440Z,101074.34
2022-08-05T00:55:15.052Z,101076.34
2022-08-05T00:57:55.243Z,101073.59
2022-08-05T01:00:27.590Z,101077.13
2022-08-05T01:02:55.985Z,101081.81
2022-08-05T01:05:23.918Z,101089.72
2022-08-05T01:08:41.290Z,101085.72
2022-08-05T01:10:51.530Z,101076.94
2022-08-05T01:13:27.413Z,101066.69
2022-08-05T01:16:21.018Z,101071.06
2022-08-05T01:18:59.166Z,101061.97
2022-08-05T01:21:58.351Z,101072.22
2022-08-05T01:24:53.735Z,101073.78
2022-08-05T01:27:33.022Z,101083.66
2022-08-05T01:30:05.657Z,101074.97
2022-08-05T01:32:48.484Z,101078.47
2022-08-05T01:35:52.126Z,101065.00
2022-08-05T01:38:10.158Z,101050.78
2022-08-05T01:40:54.024Z,101060.25
2022-08-05T01:43:24.173Z,101066.53
2022-08-05T01:45:56.106Z,101072.06
2022-08-05T01:48:26.165Z,101074.34
2022-08-05T01:50:56.731Z,101076.66
2022-08-05T01:53:54.869Z,101076.22
2022-08-05T01:58:12.973Z,101089.13
2022-08-05T01:59:09.179Z,101096.97
2022-08-05T02:01:40.252Z,101100.59
2022-08-05T02:04:10.760Z,101108.94
2022-08-05T02:06:39.295Z,101140.38
2022-08-05T02:09:08.459Z,101153.75
2022-08-05T02:11:47.855Z,101173.41
2022-08-05T02:14:31.926Z,101178.09
2022-08-05T02:17:07.911Z,101185.66
2022-08-05T02:19:49.487Z,101186.88
2022-08-05T02:22:26.797Z,101194.84
2022-08-05T02:25:06.209Z,101198.50
2022-08-05T02:27:58.443Z,101195.34
2022-08-05T02:30:32.348Z,101195.66
2022-08-05T02:33:06.726Z,101181.53
2022-08-05T02:35:44.294Z,101175.13
2022-08-05T02:38:35.108Z,101175.06
2022-08-05T02:41:14.495Z,101164.78
2022-08-05T02:44:05.999Z,101157.69
2022-08-05T02:46:35.263Z,101153.00
2022-08-05T02:49:07.014Z,101140.50
2022-08-05T02:52:03.250Z,101151.13
2022-08-05T02:54:36.091Z,101165.38
2022-08-05T02:57:10.259Z,101139.41
2022-08-05T02:59:57.608Z,101127.53
2022-08-05T03:02:30.636Z,101115.00
2022-08-05T03:05:01.531Z,101105.94
2022-08-05T03:07:56.592Z,101096.03
2022-08-05T03:10:22.107Z,101073.13
2022-08-05T03:12:55.088Z,101063.28
2022-08-05T03:15:23.524Z,101049.13
2022-08-05T03:17:54.071Z,101027.81
2022-08-05T03:20:25.268Z,101011.22
2022-08-05T03:22:57.268Z,101010.41
2022-08-05T03:26:03.898Z,101014.81
2022-08-05T03:28:18.584Z,101030.97
2022-08-05T03:30:49.548Z,101040.44
2022-08-05T03:33:19.713Z,101050.34
2022-08-05T03:35:49.864Z,101054.69
2022-08-05T03:38:32.635Z,101062.56
2022-08-05T03:41:03.955Z,101080.63
2022-08-05T03:44:09.902Z,101096.38
2022-08-05T03:46:29.490Z,101117.56
2022-08-05T03:48:57.991Z,101119.84
2022-08-05T03:52:48.780Z,101120.97
2022-08-05T03:55:52.639Z,101125.22
2022-08-05T03:57:16.598Z,101124.06
2022-08-05T03:59:54.770Z,101128.81
2022-08-05T04:02:39.106Z,101124.34
2022-08-05T04:05:14.261Z,101118.69
2022-08-05T04:07:57.152Z,101137.59
2022-08-05T04:10:28.171Z,101126.44
2022-08-05T04:12:59.233Z,101120.50
2022-08-05T04:15:27.920Z,101117.69
2022-08-05T04:18:03.328Z,101134.66
2022-08-05T04:20:31.284Z,101128.72
2022-08-05T04:23:01.206Z,101123.00
2022-08-05T04:25:57.520Z,101116.31
2022-08-05T04:28:17.244Z,101101.06
2022-08-05T04:30:45.336Z,101092.53
2022-08-05T04:33:13.961Z,101085.94
2022-08-05T04:36:15.939Z,101088.75
2022-08-05T04:38:39.702Z,101104.63
2022-08-05T04:41:09.535Z,101103.13
2022-08-05T04:43:46.570Z,101111.84
2022-08-05T04:46:28.409Z,101110.31
2022-08-05T04:48:58.817Z,101114.31
2022-08-05T04:51:30.598Z,101110.47
2022-08-05T04:54:01.419Z,101100.63
2022-08-05T04:56:34.568Z,101102.25
2022-08-05T04:59:13.994Z,101102.66
2022-08-05T05:02:35.046Z,101101.53
2022-08-05T05:04:47.816Z,101104.66
2022-08-05T05:07:18.168Z,101103.41
2022-08-05T05:09:47.436Z,101107.31
2022-08-05T05:12:15.358Z,101112.38
2022-08-05T05:14:50.805Z,101102.44
2022-08-05T05:17:23.902Z,101093.22
2022-08-05T05:19:55.183Z,101086.41
2022-08-05T05:22:26.521Z,101098.59
2022-08-05T05:24:59.781Z,101107.69
2022-08-05T05:27:44.889Z,101111.25
2022-08-05T05:30:15.433Z,101113.16
2022-08-05T05:33:00.907Z,101126.50
2022-08-05T05:35:37.780Z,101135.97
2022-08-05T05:38:09.316Z,101144.59
2022-08-05T05:40:49.782Z,101145.59
2022-08-05T05:43:27.591Z,101145.81
2022-08-05T05:46:13.708Z,101158.28
2022-08-05T05:48:45.957Z,101147.22
2022-08-05T05:51:19.855Z,101142.56
2022-08-05T05:53:57.392Z,101149.66
2022-08-05T05:56:32.271Z,101159.44
2022-08-05T05:59:05.517Z,101168.06
2022-08-05T06:01:36.969Z,101180.91
2022-08-05T06:04:07.409Z,101194.19
2022-08-05T06:06:35.755Z,101187.81
2022-08-05T06:09:04.085Z,101185.81
2022-08-05T06:11:33.461Z,101182.19
2022-08-05T06:14:01.698Z,101189.00
2022-08-05T06:16:36.824Z,101184.34
2022-08-05T06:19:07.360Z,101183.78
2022-08-05T06:21:38.347Z,101193.56
2022-08-05T06:24:11.351Z,101188.25
2022-08-05T06:26:51.406Z,101184.66
2022-08-05T06:29:43.007Z,101198.44
2022-08-05T06:32:26.111Z,101189.09
2022-08-05T06:34:58.330Z,101186.03
2022-08-05T06:37:55.970Z,101186.78
2022-08-05T06:40:18.050Z,101198.59
2022-08-05T06:42:51.731Z,101203.44
2022-08-05T06:45:21.336Z,101212.88
2022-08-05T06:48:36.440Z,101208.94
2022-08-05T06:50:56.268Z,101207.88
2022-08-05T06:53:28.681Z,101209.06
2022-08-05T06:55:57.092Z,101212.53
2022-08-05T06:58:35.124Z,101210.22
2022-08-05T07:01:06.106Z,101211.31
2022-08-05T07:03:35.565Z,101216.78
2022-08-05T07:06:05.649Z,101211.16
2022-08-05T07:08:43.173Z,101210.31
2022-08-05T07:11:16.453Z,101214.34
2022-08-05T07:14:20.153Z,101229.41
2022-08-05T07:17:57.208Z,101244.00
2022-08-05T07:22:30.176Z,101259.63
2022-08-05T07:25:23.486Z,101283.69
2022-08-05T07:27:57.134Z,101304.22
2022-08-05T07:30:32.425Z,101289.22
2022-08-05T07:33:01.100Z,101275.97
2022-08-05T07:36:04.848Z,101273.50
2022-08-05T07:38:34.192Z,101273.22
2022-08-05T07:42:07.027Z,101276.34
2022-08-05T07:43:56.083Z,101281.72
2022-08-05T07:46:27.100Z,101276.09
2022-08-05T07:49:01.835Z,101290.09
2022-08-05T07:51:40.297Z,101287.66
2022-08-05T07:54:09.959Z,101299.75
2022-08-05T07:56:38.941Z,101302.00
2022-08-05T07:59:38.147Z,101315.06
2022-08-05T08:02:15.820Z,101320.63
2022-08-05T08:04:47.770Z,101318.25
2022-08-05T08:07:17.938Z,101316.47
2022-08-05T08:09:46.258Z,101311.00
2022-08-05T08:12:33.446Z,101321.50
2022-08-05T08:15:03.531Z,101322.81
2022-08-05T08:17:35.302Z,101319.75
2022-08-05T08:20:43.036Z,101322.63
2022-08-05T08:22:55.658Z,101323.22
2022-08-05T08:25:27.082Z,101327.56
2022-08-05T08:28:18.853Z,101329.28
2022-08-05T08:31:00.727Z,101345.94
2022-08-05T08:33:30.384Z,101350.03
2022-08-05T08:36:40.248Z,101355.19
2022-08-05T08:38:55.719Z,101355.25
2022-08-05T08:41:51.360Z,101362.56
2022-08-05T08:45:16.388Z,101364.16
2022-08-05T08:47:47.237Z,101365.66
2022-08-05T08:50:14.689Z,101359.34
2022-08-05T08:52:51.542Z,101364.81
2022-08-05T08:56:02.810Z,101369.22
2022-08-05T08:58:13.115Z,101361.78
2022-08-05T09:00:44.647Z,101366.03
2022-08-05T09:03:16.284Z,101368.91
2022-08-05T09:06:09.132Z,101372.38
2022-08-05T09:08:40.519Z,101374.00
2022-08-05T09:11:13.900Z,101367.75
2022-08-05T09:14:00.838Z,101361.50
2022-08-05T09:16:31.993Z,101371.38
2022-08-05T09:19:00.006Z,101376.56
2022-08-05T09:22:31.285Z,101385.28
2022-08-05T09:24:17.754Z,101393.97
2022-08-05T09:26:51.901Z,101400.97
2022-08-05T09:29:20.486Z,101403.03
2022-08-05T09:32:41.921Z,101407.38
2022-08-05T09:34:58.509Z,101406.03
2022-08-05T09:38:16.536Z,101409.66
2022-08-05T09:40:32.272Z,101419.97
2022-08-05T09:43:01.485Z,101424.88
2022-08-05T09:46:07.887Z,101425.00
2022-08-05T09:48:29.456Z,101431.56
2022-08-05T09:51:00.597Z,101427.72
2022-08-05T09:53:53.656Z,101443.50
2022-08-05T09:56:27.349Z,101431.50
2022-08-05T09:59:04.090Z,101440.69
2022-08-05T10:01:35.172Z,101447.22
2022-08-05T10:04:10.462Z,101449.19
2022-08-05T10:06:40.452Z,101453.28
2022-08-05T10:09:27.286Z,101463.69
2022-08-05T10:11:56.718Z,101468.72
2022-08-05T10:14:28.115Z,101461.81
2022-08-05T10:17:36.857Z,101467.25
2022-08-05T10:20:03.796Z,101465.09
2022-08-05T10:22:42.845Z,101471.25
2022-08-05T10:25:18.864Z,101469.16
2022-08-05T10:28:13.458Z,101462.75
2022-08-05T10:31:20.478Z,101477.53
2022-08-05T10:33:28.817Z,101472.88
2022-08-05T10:35:59.670Z,101482.03
2022-08-05T10:38:33.202Z,101478.09
2022-08-05T10:41:12.377Z,101476.94
2022-08-05T10:43:50.386Z,101490.03
2022-08-05T10:46:24.136Z,101497.19
2022-08-05T10:49:01.496Z,101494.75
2022-08-05T10:51:57.669Z,101498.44
2022-08-05T10:54:56.520Z,101495.00
2022-08-05T10:57:32.063Z,101497.91
2022-08-05T11:00:12.160Z,101498.69
2022-08-05T11:03:24.812Z,101507.41
2022-08-05T11:06:22.376Z,101504.25
2022-08-05T11:09:32.500Z,101499.94
2022-08-05T11:12:50.784Z,101495.28
2022-08-05T11:16:00.254Z,101497.28
2022-08-05T11:18:29.845Z,101508.00
2022-08-05T11:21:02.129Z,101498.88
2022-08-05T11:24:04.924Z,101502.84
2022-08-05T11:26:29.013Z,101502.84
2022-08-05T11:29:06.593Z,101506.84
2022-08-05T11:31:54.300Z,101502.47
2022-08-05T11:34:38.872Z,101515.53
2022-08-05T11:38:29.464Z,101518.31
2022-08-05T11:40:03.023Z,101509.56
2022-08-05T11:42:37.613Z,101505.94
2022-08-05T11:45:14.478Z,101511.84
2022-08-05T11:47:54.831Z,101508.13
2022-08-05T11:50:23.396Z,101516.50
2022-08-05T11:52:57.617Z,101515.13
2022-08-05T11:55:32.164Z,101512.63
2022-08-05T11:58:10.861Z,101506.22
2022-08-05T12:00:41.442Z,101503.06
2022-08-05T12:03:28.386Z,101509.38
2022-08-05T12:06:13.365Z,101506.81
2022-08-05T12:08:49.989Z,101502.28
2022-08-05T12:11:21.554Z,101515.31
2022-08-05T12:13:58.678Z,101507.22
2022-08-05T12:16:34.867Z,101514.03
2022-08-05T12:19:10.007Z,101518.00
2022-08-05T12:21:58.023Z,101510.03
2022-08-05T12:24:26.185Z,101511.47
2022-08-05T12:26:56.509Z,101512.63
2022-08-05T12:29:27.323Z,101499.13
2022-08-05T12:31:57.236Z,101524.69
2022-08-05T12:34:29.542Z,101529.97
2022-08-05T12:36:59.481Z,101534.34
2022-08-05T12:39:37.110Z,101539.97
2022-08-05T12:42:14.401Z,101540.81
2022-08-05T12:44:44.696Z,101536.38
2022-08-05T12:47:13.848Z,101549.41
2022-08-05T12:50:02.408Z,101552.53
2022-08-05T12:52:38.918Z,101551.78
2022-08-05T12:55:22.333Z,101554.59
2022-08-05T12:58:52.741Z,101562.25
2022-08-05T13:02:01.800Z,101567.03
2022-08-05T13:03:42.447Z,101574.22
2022-08-05T13:06:19.947Z,101570.31
2022-08-05T13:08:52.401Z,101571.50
2022-08-05T13:11:25.423Z,101582.22
2022-08-05T13:14:36.256Z,101583.03
2022-08-05T13:17:12.672Z,101580.22
2022-08-05T13:19:52.947Z,101588.56
2022-08-05T13:22:29.180Z,101589.34
2022-08-05T13:25:00.763Z,101593.34
2022-08-05T13:27:37.276Z,101596.56
2022-08-05T13:30:34.476Z,101591.41
2022-08-05T13:32:56.514Z,101603.72
2022-08-05T13:35:43.326Z,101606.88
2022-08-05T13:38:28.426Z,101608.50
2022-08-05T13:40:59.812Z,101603.72
2022-08-05T13:43:44.957Z,101605.72
2022-08-05T13:46:16.190Z,101604.47
2022-08-05T13:48:57.850Z,101607.25
2022-08-05T13:51:40.149Z,101612.47
2022-08-05T13:54:12.859Z,101614.81
2022-08-05T13:56:44.923Z,101619.56
2022-08-05T13:59:21.295Z,101616.38
2022-08-05T14:01:58.383Z,101614.81
2022-08-05T14:04:50.225Z,101618.78
2022-08-05T14:07:57.062Z,101620.38
2022-08-05T14:10:12.674Z,101621.16
2022-08-05T14:12:42.859Z,101611.66
2022-08-05T14:16:04.634Z,101616.44
2022-08-05T14:18:05.594Z,101622.00
2022-08-05T14:20:34.248Z,101627.53
2022-08-05T14:23:02.634Z,101628.34
2022-08-05T14:25:31.923Z,101629.53
2022-08-05T14:27:59.754Z,101624.38
2022-08-05T14:30:28.696Z,101623.91
2022-08-05T14:32:58.838Z,101642.56
2022-08-05T14:35:50.024Z,101639.78
2022-08-05T14:38:32.937Z,101635.03
2022-08-05T14:41:07.756Z,101630.66
2022-08-05T14:44:00.210Z,101637.81
2022-08-05T14:46:28.276Z,101631.13
2022-08-05T14:48:57.930Z,101640.25
2022-08-05T14:51:30.766Z,101631.47
2022-08-05T14:54:25.833Z,101629.47
2022-08-05T14:56:48.702Z,101627.09
2022-08-05T14:59:21.327Z,101634.66
2022-08-05T15:01:50.073Z,101646.59
2022-08-05T15:04:20.542Z,101641.84
2022-08-05T15:06:50.154Z,101656.16
2022-08-05T15:09:50.654Z,101652.56
2022-08-05T15:12:08.937Z,101651.34
2022-08-05T15:14:49.882Z,101659.25
2022-08-05T15:17:45.929Z,101652.94
2022-08-05T15:20:13.421Z,101654.50
2022-08-05T15:22:46.377Z,101659.25
2022-08-05T15:25:23.384Z,101660.03
2022-08-05T15:28:14.430Z,101667.97
2022-08-05T15:30:43.246Z,101662.38
2022-08-05T15:33:11.887Z,101669.13
2022-08-05T15:35:45.392Z,101670.31
2022-08-05T15:38:35.706Z,101671.06
2022-08-05T15:41:22.937Z,101677.41
2022-08-05T15:43:51.857Z,101667.03
2022-08-05T15:46:24.087Z,101666.59
2022-08-05T15:48:58.690Z,101676.47
2022-08-05T15:52:04.045Z,101681.19
2022-08-05T15:54:18.482Z,101678.06
2022-08-05T15:56:46.536Z,101673.34
2022-08-05T15:59:22.031Z,101670.66
2022-08-05T16:01:52.995Z,101675.09
2022-08-05T16:04:25.371Z,101679.09
2022-08-05T16:06:54.175Z,101675.13
2022-08-05T16:09:23.887Z,101677.91
2022-08-05T16:11:53.903Z,101685.47
2022-08-05T16:14:23.469Z,101691.41
2022-08-05T16:16:51.835Z,101696.59
2022-08-05T16:20:02.758Z,101691.03
2022-08-05T16:22:10.684Z,101689.44
2022-08-05T16:24:41.732Z,101685.06
2022-08-05T16:27:32.078Z,101685.53
2022-08-05T16:30:25.631Z,101689.50
2022-08-05T16:32:54.819Z,101684.72
2022-08-05T16:35:28.701Z,101687.13
2022-08-05T16:38:02.656Z,101692.28
2022-08-05T16:40:51.655Z,101692.28
2022-08-05T16:43:24.024Z,101696.66
2022-08-05T16:46:05.011Z,101700.59
2022-08-05T16:48:39.123Z,101714.06
2022-08-05T16:51:09.821Z,101713.69
2022-08-05T16:54:02.848Z,101713.28
2022-08-05T16:56:27.728Z,101716.06
2022-08-05T16:58:55.977Z,101719.59
2022-08-05T17:01:31.733Z,101718.78
2022-08-05T17:04:16.250Z,101718.72
2022-08-05T17:06:53.074Z,101721.50
2022-08-05T17:09:21.606Z,101736.19
2022-08-05T17:11:55.898Z,101743.31
2022-08-05T17:14:36.955Z,101745.59
2022-08-05T17:17:14.347Z,101751.13
2022-08-05T17:19:45.732Z,101749.09
2022-08-05T17:22:17.856Z,101749.47
2022-08-05T17:24:57.650Z,101754.16
2022-08-05T17:27:34.006Z,101753.75
2022-08-05T17:30:03.502Z,101758.09
2022-08-05T17:32:34.690Z,101759.63
2022-08-05T17:35:03.964Z,101762.78
2022-08-05T17:37:41.567Z,101768.28
2022-08-05T17:40:15.430Z,101758.69
2022-08-05T17:42:50.768Z,101763.75
2022-08-05T17:45:21.257Z,101774.41
2022-08-05T17:47:54.968Z,101772.00
2022-08-05T17:50:28.435Z,101782.25
2022-08-05T17:53:00.182Z,101781.78
2022-08-05T17:55:34.568Z,101779.34
2022-08-05T17:58:12.240Z,101782.91
2022-08-05T18:00:45.307Z,101793.19
2022-08-05T18:03:56.575Z,101800.38
2022-08-05T18:06:11.522Z,101805.94
2022-08-05T18:08:45.102Z,101807.53
2022-08-05T18:11:23.913Z,101799.53
2022-08-05T18:13:54.606Z,101809.34
2022-08-05T18:16:23.501Z,101813.72
2022-08-05T18:18:52.907Z,101820.00
2022-08-05T18:21:26.087Z,101827.91
2022-08-05T18:23:54.606Z,101828.69
2022-08-05T18:26:29.027Z,101828.69
2022-08-05T18:28:58.061Z,101834.78
2022-08-05T18:31:33.118Z,101850.59
2022-08-05T18:34:05.817Z,101843.25
2022-08-05T18:36:36.041Z,101850.19
2022-08-05T18:39:06.574Z,101848.56
2022-08-05T18:41:56.360Z,101859.25
2022-08-05T18:44:35.204Z,101865.94
2022-08-05T18:47:12.165Z,101866.63
2022-08-05T18:50:00.208Z,101865.03
2022-08-05T18:52:36.196Z,101864.47
2022-08-05T18:55:10.664Z,101868.72
2022-08-05T18:57:50.019Z,101876.63
2022-08-05T19:00:28.652Z,101874.16
2022-08-05T19:03:03.916Z,101877.28
2022-08-05T19:06:12.764Z,101877.19
2022-08-05T19:08:30.888Z,101881.03
2022-08-05T19:11:04.770Z,101888.81
2022-08-05T19:13:36.682Z,101887.84
2022-08-05T19:16:24.438Z,101897.63
2022-08-05T19:18:57.035Z,101904.19
2022-08-05T19:21:34.146Z,101908.00
2022-08-05T19:24:06.676Z,101912.59
2022-08-05T19:26:43.954Z,101928.91
2022-08-05T19:29:23.782Z,101929.25
2022-08-05T19:31:54.840Z,101927.53
2022-08-05T19:34:25.603Z,101931.88
2022-08-05T19:36:55.031Z,101926.34
2022-08-05T19:39:23.279Z,101935.75
2022-08-05T19:42:06.632Z,101939.53
2022-08-05T19:44:44.588Z,101949.91
2022-08-05T19:47:15.275Z,101949.44
2022-08-05T19:49:44.751Z,101958.91
2022-08-05T19:52:40.572Z,101963.41
2022-08-05T19:55:06.805Z,101969.41
2022-08-05T19:57:48.878Z,101976.38
2022-08-05T20:00:23.795Z,101988.50
2022-08-05T20:02:52.750Z,101984.94
2022-08-05T20:05:24.570Z,101981.59
2022-08-05T20:07:58.854Z,101990.88
2022-08-05T20:10:27.551Z,101995.34
2022-08-05T20:12:56.870Z,101997.56
2022-08-05T20:15:52.035Z,102003.88
2022-08-05T20:18:32.665Z,102002.31
2022-08-05T20:21:00.668Z,102006.66
2022-08-05T20:23:39.398Z,102012.66
2022-08-05T20:26:17.977Z,102019.47
2022-08-05T20:28:48.546Z,102016.28
2022-08-05T20:31:17.119Z,102018.50
2022-08-05T20:33:45.845Z,102024.78
2022-08-05T20:36:16.493Z,102029.03
2022-08-05T20:38:53.265Z,102027.91
2022-08-05T20:41:24.153Z,102041.16
2022-08-05T20:43:58.762Z,102047.63
2022-08-05T20:46:28.949Z,102048.78
2022-08-05T20:48:57.494Z,102050.19
2022-08-05T20:51:25.358Z,102053.66
2022-08-05T20:53:56.398Z,102052.50
2022-08-05T20:56:29.776Z,102059.16
2022-08-05T20:59:14.026Z,102061.34
2022-08-05T21:01:47.661Z,102066.00
2022-08-05T21:04:18.805Z,102063.59
2022-08-05T21:06:47.722Z,102074.63
2022-08-05T21:09:17.929Z,102066.13
2022-08-05T21:12:07.685Z,102073.69
2022-08-05T21:14:35.579Z,102073.47
2022-08-05T21:17:05.261Z,102072.81
2022-08-05T21:19:46.789Z,102076.75
2022-08-05T21:22:18.513Z,102084.69
2022-08-05T21:24:51.637Z,102087.66
2022-08-05T21:27:25.122Z,102098.47
2022-08-05T21:29:54.152Z,102092.59
2022-08-05T21:32:24.529Z,102089.63
2022-08-05T21:35:08.662Z,102093.97
2022-08-05T21:37:47.380Z,102100.19
2022-08-05T21:40:23.793Z,102091.44
2022-08-05T21:42:53.641Z,102095.59
2022-08-05T21:45:25.184Z,102099.94
2022-08-05T21:48:10.799Z,102106.84
2022-08-05T21:50:54.349Z,102095.81
2022-08-05T21:53:24.857Z,102099.97
2022-08-05T21:56:05.924Z,102099.94
2022-08-05T21:58:48.410Z,102108.66
2022-08-05T22:01:26.145Z,102107.75
2022-08-05T22:03:54.195Z,102113.94
2022-08-05T22:06:39.475Z,102112.97
2022-08-05T22:09:13.912Z,102112.03
2022-08-05T22:11:46.787Z,102106.28
2022-08-05T22:14:34.305Z,102117.19
2022-08-05T22:17:06.700Z,102113.97
2022-08-05T22:20:01.418Z,102116.25
2022-08-05T22:22:28.247Z,102122.56
2022-08-05T22:25:21.851Z,102134.50
2022-08-05T22:28:09.564Z,102126.34
2022-08-05T22:30:44.136Z,102133.50
2022-08-05T22:33:56.974Z,102133.50
2022-08-05T22:36:14.780Z,102135.75
2022-08-05T22:38:43.996Z,102123.50
2022-08-05T22:42:04.179Z,102125.78
2022-08-05T22:44:07.323Z,102137.47
2022-08-05T22:46:39.578Z,102140.91
2022-08-05T22:49:23.020Z,102148.22
2022-08-05T22:52:05.988Z,102145.69
2022-08-05T22:54:36.083Z,102150.25
2022-08-05T22:57:04.095Z,102158.72
2022-08-05T22:59:43.693Z,102160.56
2022-08-05T23:02:14.003Z,102160.28
2022-08-05T23:04:51.897Z,102155.78
2022-08-05T23:07:21.843Z,102165.84
2022-08-05T23:09:57.702Z,102162.50
2022-08-05T23:12:32.546Z,102174.16
2022-08-05T23:15:03.369Z,102172.09
2022-08-05T23:17:34.349Z,102173.78
2022-08-05T23:20:10.447Z,102174.41
2022-08-05T23:22:47.097Z,102178.31
2022-08-05T23:25:50.962Z,102183.81
2022-08-05T23:28:07.876Z,102190.13
2022-08-05T23:30:40.539Z,102190.13
2022-08-05T23:33:21.819Z,102205.00
2022-08-05T23:35:51.134Z,102204.84
2022-08-05T23:38:19.413Z,102195.81
2022-08-05T23:40:49.380Z,102199.66
2022-08-05T23:43:25.472Z,102204.69
2022-08-05T23:46:20.161Z,102210.19
2022-08-05T23:49:00.305Z,102206.19
2022-08-05T23:51:52.906Z,102204.88
2022-08-05T23:54:25.949Z,102196.50
2022-08-05T23:56:54.804Z,102199.59
2022-08-05T23:59:37.364Z,102201.06
